sensor_id;sensor_type;location;lat;lon;timestamp;P1;durP1;ratioP1;P2;durP2;ratioP2
17079;SDS011;8655;57.106;-2.088;2022-11-18T00:01:25;14.40;;;4.57;;
17079;SDS011;8655;57.106;-2.088;2022-11-18T00:03:50;13.10;;;4.60;;
17079;SDS011;8655;57.106;-2.088;2022-11-18T00:06:21;12.80;;;5.10;;
17079;SDS011;8655;57.106;-2.088;2022-11-18T00:08:48;13.83;;;4.90;;
17079;SDS011;8655;57.106;-2.088;2022-11-18T00:11:16;9.80;;;4.43;;
17079;SDS011;8655;57.106;-2.088;2022-11-18T00:14:03;11.50;;;4.70;;
17079;SDS011;8655;57.106;-2.088;2022-11-18T00:16:45;13.35;;;4.80;;
17079;SDS011;8655;57.106;-2.088;2022-11-18T00:19:12;11.85;;;4.80;;
17079;SDS011;8655;57.106;-2.088;2022-11-18T00:21:38;12.27;;;5.10;;
17079;SDS011;8655;57.106;-2.088;2022-11-18T00:24:03;12.97;;;5.00;;
17079;SDS011;8655;57.106;-2.088;2022-11-18T00:26:29;13.37;;;4.87;;
17079;SDS011;8655;57.106;-2.088;2022-11-18T00:28:55;11.80;;;4.40;;
17079;SDS011;8655;57.106;-2.088;2022-11-18T00:31:20;11.60;;;4.80;;
17079;SDS011;8655;57.106;-2.088;2022-11-18T00:33:46;14.00;;;5.10;;
17079;SDS011;8655;57.106;-2.088;2022-11-18T00:36:12;9.52;;;4.75;;
17079;SDS011;8655;57.106;-2.088;2022-11-18T00:38:38;14.47;;;4.90;;
17079;SDS011;8655;57.106;-2.088;2022-11-18T00:41:05;11.73;;;4.80;;
17079;SDS011;8655;57.106;-2.088;2022-11-18T00:43:35;13.43;;;5.40;;
17079;SDS011;8655;57.106;-2.088;2022-11-18T00:46:01;13.10;;;4.60;;
17079;SDS011;8655;57.106;-2.088;2022-11-18T00:48:27;14.37;;;5.07;;
17079;SDS011;8655;57.106;-2.088;2022-11-18T00:50:54;14.30;;;4.60;;
17079;SDS011;8655;57.106;-2.088;2022-11-18T00:53:22;11.02;;;4.70;;
17079;SDS011;8655;57.106;-2.088;2022-11-18T00:55:49;11.80;;;4.87;;
17079;SDS011;8655;57.106;-2.088;2022-11-18T00:58:15;10.13;;;4.60;;
17079;SDS011;8655;57.106;-2.088;2022-11-18T01:00:41;12.80;;;4.90;;
17079;SDS011;8655;57.106;-2.088;2022-11-18T01:03:09;11.30;;;4.50;;
17079;SDS011;8655;57.106;-2.088;2022-11-18T01:05:36;11.60;;;4.77;;
17079;SDS011;8655;57.106;-2.088;2022-11-18T01:08:03;11.50;;;4.87;;
17079;SDS011;8655;57.106;-2.088;2022-11-18T01:10:30;13.27;;;4.80;;
17079;SDS011;8655;57.106;-2.088;2022-11-18T01:12:56;12.13;;;4.83;;
17079;SDS011;8655;57.106;-2.088;2022-11-18T01:15:41;15.60;;;5.10;;
17079;SDS011;8655;57.106;-2.088;2022-11-18T01:18:08;12.60;;;4.97;;
17079;SDS011;8655;57.106;-2.088;2022-11-18T01:20:34;13.23;;;4.80;;
17079;SDS011;8655;57.106;-2.088;2022-11-18T01:23:01;15.07;;;4.67;;
17079;SDS011;8655;57.106;-2.088;2022-11-18T01:25:27;11.57;;;4.73;;
17079;SDS011;8655;57.106;-2.088;2022-11-18T01:27:53;13.33;;;4.63;;
17079;SDS011;8655;57.106;-2.088;2022-11-18T01:30:19;14.40;;;4.47;;
17079;SDS011;8655;57.106;-2.088;2022-11-18T01:32:47;14.37;;;5.13;;
17079;SDS011;8655;57.106;-2.088;2022-11-18T01:35:12;13.50;;;5.07;;
17079;SDS011;8655;57.106;-2.088;2022-11-18T01:37:38;16.37;;;5.53;;
17079;SDS011;8655;57.106;-2.088;2022-11-18T01:40:04;13.57;;;5.10;;
17079;SDS011;8655;57.106;-2.088;2022-11-18T01:42:32;12.37;;;4.40;;
17079;SDS011;8655;57.106;-2.088;2022-11-18T01:44:59;12.33;;;4.93;;
17079;SDS011;8655;57.106;-2.088;2022-11-18T01:47:48;12.60;;;4.93;;
17079;SDS011;8655;57.106;-2.088;2022-11-18T01:50:22;15.33;;;5.27;;
17079;SDS011;8655;57.106;-2.088;2022-11-18T01:52:48;11.50;;;4.45;;
17079;SDS011;8655;57.106;-2.088;2022-11-18T01:55:17;13.80;;;5.00;;
17079;SDS011;8655;57.106;-2.088;2022-11-18T01:57:47;13.30;;;5.20;;
17079;SDS011;8655;57.106;-2.088;2022-11-18T02:00:15;13.17;;;5.23;;
17079;SDS011;8655;57.106;-2.088;2022-11-18T02:02:41;11.73;;;4.80;;
17079;SDS011;8655;57.106;-2.088;2022-11-18T02:05:08;13.90;;;4.87;;
17079;SDS011;8655;57.106;-2.088;2022-11-18T02:07:39;13.77;;;6.17;;
17079;SDS011;8655;57.106;-2.088;2022-11-18T02:10:08;12.23;;;4.70;;
17079;SDS011;8655;57.106;-2.088;2022-11-18T02:12:41;11.30;;;4.63;;
17079;SDS011;8655;57.106;-2.088;2022-11-18T02:15:07;15.18;;;5.40;;
17079;SDS011;8655;57.106;-2.088;2022-11-18T02:20:43;12.43;;;4.87;;
17079;SDS011;8655;57.106;-2.088;2022-11-18T02:31:34;14.48;;;5.32;;
17079;SDS011;8655;57.106;-2.088;2022-11-18T02:40:21;13.37;;;5.43;;
17079;SDS011;8655;57.106;-2.088;2022-11-18T02:43:00;12.97;;;5.37;;
17079;SDS011;8655;57.106;-2.088;2022-11-18T02:46:04;12.53;;;4.63;;
17079;SDS011;8655;57.106;-2.088;2022-11-18T02:48:34;13.90;;;4.60;;
17079;SDS011;8655;57.106;-2.088;2022-11-18T02:51:03;14.23;;;5.40;;
17079;SDS011;8655;57.106;-2.088;2022-11-18T02:53:32;11.83;;;4.50;;
17079;SDS011;8655;57.106;-2.088;2022-11-18T02:56:02;13.60;;;5.40;;
17079;SDS011;8655;57.106;-2.088;2022-11-18T02:58:29;15.27;;;5.20;;
17079;SDS011;8655;57.106;-2.088;2022-11-18T03:00:55;12.80;;;5.17;;
17079;SDS011;8655;57.106;-2.088;2022-11-18T03:03:24;14.70;;;5.63;;
17079;SDS011;8655;57.106;-2.088;2022-11-18T03:06:16;13.97;;;4.90;;
17079;SDS011;8655;57.106;-2.088;2022-11-18T03:08:49;12.23;;;5.07;;
17079;SDS011;8655;57.106;-2.088;2022-11-18T03:11:23;14.87;;;4.93;;
17079;SDS011;8655;57.106;-2.088;2022-11-18T03:25:41;15.53;;;5.20;;
17079;SDS011;8655;57.106;-2.088;2022-11-18T03:33:34;14.00;;;5.27;;
17079;SDS011;8655;57.106;-2.088;2022-11-18T03:36:04;13.82;;;5.05;;
17079;SDS011;8655;57.106;-2.088;2022-11-18T03:38:33;14.40;;;5.60;;
17079;SDS011;8655;57.106;-2.088;2022-11-18T03:41:03;14.20;;;5.43;;
17079;SDS011;8655;57.106;-2.088;2022-11-18T03:43:33;13.40;;;4.95;;
17079;SDS011;8655;57.106;-2.088;2022-11-18T03:46:07;13.68;;;5.35;;
17079;SDS011;8655;57.106;-2.088;2022-11-18T03:48:47;13.07;;;5.23;;
17079;SDS011;8655;57.106;-2.088;2022-11-18T03:51:17;16.80;;;5.37;;
17079;SDS011;8655;57.106;-2.088;2022-11-18T03:53:51;15.40;;;5.47;;
17079;SDS011;8655;57.106;-2.088;2022-11-18T03:56:21;15.30;;;5.57;;
17079;SDS011;8655;57.106;-2.088;2022-11-18T04:04:19;15.60;;;5.70;;
17079;SDS011;8655;57.106;-2.088;2022-11-18T04:06:47;15.83;;;5.47;;
17079;SDS011;8655;57.106;-2.088;2022-11-18T04:09:31;12.87;;;5.13;;
17079;SDS011;8655;57.106;-2.088;2022-11-18T04:12:04;17.63;;;5.70;;
17079;SDS011;8655;57.106;-2.088;2022-11-18T04:17:03;14.93;;;5.70;;
17079;SDS011;8655;57.106;-2.088;2022-11-18T04:19:32;15.60;;;6.13;;
17079;SDS011;8655;57.106;-2.088;2022-11-18T04:21:58;17.70;;;6.53;;
17079;SDS011;8655;57.106;-2.088;2022-11-18T04:24:24;15.10;;;6.03;;
17079;SDS011;8655;57.106;-2.088;2022-11-18T04:26:49;18.10;;;6.07;;
17079;SDS011;8655;57.106;-2.088;2022-11-18T04:29:15;17.93;;;6.40;;
17079;SDS011;8655;57.106;-2.088;2022-11-18T04:31:41;14.57;;;5.23;;
17079;SDS011;8655;57.106;-2.088;2022-11-18T04:34:06;15.43;;;5.93;;
17079;SDS011;8655;57.106;-2.088;2022-11-18T04:36:32;19.13;;;6.20;;
17079;SDS011;8655;57.106;-2.088;2022-11-18T04:38:58;16.50;;;5.97;;
17079;SDS011;8655;57.106;-2.088;2022-11-18T04:41:23;12.33;;;5.50;;
17079;SDS011;8655;57.106;-2.088;2022-11-18T04:44:09;14.90;;;5.50;;
17079;SDS011;8655;57.106;-2.088;2022-11-18T04:46:38;15.70;;;5.70;;
17079;SDS011;8655;57.106;-2.088;2022-11-18T04:49:05;17.10;;;5.77;;
17079;SDS011;8655;57.106;-2.088;2022-11-18T04:51:31;14.43;;;5.80;;
17079;SDS011;8655;57.106;-2.088;2022-11-18T04:53:56;18.00;;;5.57;;
17079;SDS011;8655;57.106;-2.088;2022-11-18T04:56:22;12.70;;;5.30;;
17079;SDS011;8655;57.106;-2.088;2022-11-18T04:58:48;15.03;;;5.73;;
17079;SDS011;8655;57.106;-2.088;2022-11-18T05:01:13;15.33;;;5.83;;
17079;SDS011;8655;57.106;-2.088;2022-11-18T05:03:39;14.20;;;5.83;;
17079;SDS011;8655;57.106;-2.088;2022-11-18T05:06:04;15.47;;;6.20;;
17079;SDS011;8655;57.106;-2.088;2022-11-18T05:08:30;14.90;;;5.73;;
17079;SDS011;8655;57.106;-2.088;2022-11-18T05:10:56;14.17;;;5.60;;
17079;SDS011;8655;57.106;-2.088;2022-11-18T05:13:41;17.90;;;5.93;;
17079;SDS011;8655;57.106;-2.088;2022-11-18T05:16:07;15.73;;;5.73;;
17079;SDS011;8655;57.106;-2.088;2022-11-18T05:18:33;14.60;;;5.50;;
17079;SDS011;8655;57.106;-2.088;2022-11-18T05:21:03;17.63;;;6.20;;
17079;SDS011;8655;57.106;-2.088;2022-11-18T05:23:29;17.67;;;6.10;;
17079;SDS011;8655;57.106;-2.088;2022-11-18T05:25:55;16.20;;;6.13;;
17079;SDS011;8655;57.106;-2.088;2022-11-18T05:28:20;19.43;;;6.30;;
17079;SDS011;8655;57.106;-2.088;2022-11-18T05:30:46;14.77;;;5.70;;
17079;SDS011;8655;57.106;-2.088;2022-11-18T05:33:12;15.53;;;5.80;;
17079;SDS011;8655;57.106;-2.088;2022-11-18T05:35:37;15.87;;;6.17;;
17079;SDS011;8655;57.106;-2.088;2022-11-18T05:38:03;17.77;;;6.70;;
17079;SDS011;8655;57.106;-2.088;2022-11-18T05:40:29;15.60;;;6.07;;
17079;SDS011;8655;57.106;-2.088;2022-11-18T05:42:54;16.27;;;6.03;;
17079;SDS011;8655;57.106;-2.088;2022-11-18T05:45:35;15.63;;;5.40;;
17079;SDS011;8655;57.106;-2.088;2022-11-18T05:48:02;15.73;;;5.93;;
17079;SDS011;8655;57.106;-2.088;2022-11-18T05:50:29;18.03;;;6.00;;
17079;SDS011;8655;57.106;-2.088;2022-11-18T05:52:56;18.67;;;6.77;;
17079;SDS011;8655;57.106;-2.088;2022-11-18T05:55:23;18.40;;;6.17;;
17079;SDS011;8655;57.106;-2.088;2022-11-18T05:57:53;17.57;;;6.00;;
17079;SDS011;8655;57.106;-2.088;2022-11-18T06:00:19;18.00;;;6.63;;
17079;SDS011;8655;57.106;-2.088;2022-11-18T06:02:45;17.40;;;5.70;;
17079;SDS011;8655;57.106;-2.088;2022-11-18T06:05:13;16.67;;;6.03;;
17079;SDS011;8655;57.106;-2.088;2022-11-18T06:07:41;14.57;;;6.00;;
17079;SDS011;8655;57.106;-2.088;2022-11-18T06:10:12;15.40;;;5.90;;
17079;SDS011;8655;57.106;-2.088;2022-11-18T06:12:46;14.03;;;5.90;;
17079;SDS011;8655;57.106;-2.088;2022-11-18T06:15:16;18.33;;;6.10;;
17079;SDS011;8655;57.106;-2.088;2022-11-18T06:17:50;15.93;;;6.20;;
17079;SDS011;8655;57.106;-2.088;2022-11-18T06:20:31;15.37;;;6.20;;
17079;SDS011;8655;57.106;-2.088;2022-11-18T06:22:58;17.03;;;6.00;;
17079;SDS011;8655;57.106;-2.088;2022-11-18T06:25:25;15.67;;;5.87;;
17079;SDS011;8655;57.106;-2.088;2022-11-18T06:27:52;13.50;;;6.23;;
17079;SDS011;8655;57.106;-2.088;2022-11-18T06:30:21;18.30;;;6.70;;
17079;SDS011;8655;57.106;-2.088;2022-11-18T06:32:47;15.57;;;6.40;;
17079;SDS011;8655;57.106;-2.088;2022-11-18T06:35:12;16.97;;;6.67;;
17079;SDS011;8655;57.106;-2.088;2022-11-18T06:37:38;15.70;;;6.40;;
17079;SDS011;8655;57.106;-2.088;2022-11-18T06:40:04;19.03;;;6.50;;
17079;SDS011;8655;57.106;-2.088;2022-11-18T06:42:30;18.43;;;6.53;;
17079;SDS011;8655;57.106;-2.088;2022-11-18T06:45:14;20.03;;;6.13;;
17079;SDS011;8655;57.106;-2.088;2022-11-18T06:47:40;17.60;;;6.30;;
17079;SDS011;8655;57.106;-2.088;2022-11-18T06:50:06;16.10;;;5.93;;
17079;SDS011;8655;57.106;-2.088;2022-11-18T06:52:32;15.05;;;6.28;;
17079;SDS011;8655;57.106;-2.088;2022-11-18T06:54:58;14.30;;;5.47;;
17079;SDS011;8655;57.106;-2.088;2022-11-18T06:57:23;15.00;;;5.70;;
17079;SDS011;8655;57.106;-2.088;2022-11-18T06:59:49;15.73;;;5.57;;
17079;SDS011;8655;57.106;-2.088;2022-11-18T07:02:14;14.10;;;5.93;;
17079;SDS011;8655;57.106;-2.088;2022-11-18T07:04:43;13.47;;;5.07;;
17079;SDS011;8655;57.106;-2.088;2022-11-18T07:07:09;18.43;;;5.93;;
17079;SDS011;8655;57.106;-2.088;2022-11-18T07:09:35;14.40;;;5.83;;
17079;SDS011;8655;57.106;-2.088;2022-11-18T07:12:01;11.87;;;4.90;;
17079;SDS011;8655;57.106;-2.088;2022-11-18T07:14:27;11.93;;;5.30;;
17079;SDS011;8655;57.106;-2.088;2022-11-18T07:16:54;18.30;;;5.53;;
17079;SDS011;8655;57.106;-2.088;2022-11-18T07:19:19;17.40;;;5.80;;
17079;SDS011;8655;57.106;-2.088;2022-11-18T07:21:45;13.23;;;5.40;;
17079;SDS011;8655;57.106;-2.088;2022-11-18T07:24:12;13.80;;;5.10;;
17079;SDS011;8655;57.106;-2.088;2022-11-18T07:26:38;13.40;;;5.57;;
17079;SDS011;8655;57.106;-2.088;2022-11-18T07:29:04;14.53;;;5.27;;
17079;SDS011;8655;57.106;-2.088;2022-11-18T07:31:30;14.10;;;5.17;;
17079;SDS011;8655;57.106;-2.088;2022-11-18T07:33:56;14.90;;;5.35;;
17079;SDS011;8655;57.106;-2.088;2022-11-18T07:36:26;12.63;;;4.78;;
17079;SDS011;8655;57.106;-2.088;2022-11-18T07:38:53;14.73;;;5.13;;
17079;SDS011;8655;57.106;-2.088;2022-11-18T07:41:20;14.43;;;5.28;;
17079;SDS011;8655;57.106;-2.088;2022-11-18T07:43:48;17.42;;;6.32;;
17079;SDS011;8655;57.106;-2.088;2022-11-18T07:46:16;11.37;;;5.20;;
17079;SDS011;8655;57.106;-2.088;2022-11-18T07:48:44;13.70;;;5.57;;
17079;SDS011;8655;57.106;-2.088;2022-11-18T07:51:11;14.17;;;5.60;;
17079;SDS011;8655;57.106;-2.088;2022-11-18T07:53:38;14.07;;;5.20;;
17079;SDS011;8655;57.106;-2.088;2022-11-18T07:56:04;16.53;;;6.10;;
17079;SDS011;8655;57.106;-2.088;2022-11-18T07:58:31;13.23;;;5.78;;
17079;SDS011;8655;57.106;-2.088;2022-11-18T08:00:57;15.70;;;6.07;;
17079;SDS011;8655;57.106;-2.088;2022-11-18T08:03:26;15.75;;;5.88;;
17079;SDS011;8655;57.106;-2.088;2022-11-18T08:05:52;17.25;;;6.25;;
17079;SDS011;8655;57.106;-2.088;2022-11-18T08:08:24;14.23;;;5.40;;
17079;SDS011;8655;57.106;-2.088;2022-11-18T08:10:50;16.27;;;6.38;;
17079;SDS011;8655;57.106;-2.088;2022-11-18T08:13:18;16.42;;;6.63;;
17079;SDS011;8655;57.106;-2.088;2022-11-18T08:15:44;15.20;;;5.93;;
17079;SDS011;8655;57.106;-2.088;2022-11-18T08:18:10;14.70;;;5.82;;
17079;SDS011;8655;57.106;-2.088;2022-11-18T08:20:36;16.48;;;6.68;;
17079;SDS011;8655;57.106;-2.088;2022-11-18T08:23:01;19.85;;;6.22;;
17079;SDS011;8655;57.106;-2.088;2022-11-18T08:25:27;17.35;;;6.10;;
17079;SDS011;8655;57.106;-2.088;2022-11-18T08:27:53;20.13;;;6.50;;
17079;SDS011;8655;57.106;-2.088;2022-11-18T08:30:19;17.98;;;7.03;;
17079;SDS011;8655;57.106;-2.088;2022-11-18T08:32:44;18.95;;;6.32;;
17079;SDS011;8655;57.106;-2.088;2022-11-18T08:35:10;18.38;;;6.57;;
17079;SDS011;8655;57.106;-2.088;2022-11-18T08:37:36;17.53;;;6.60;;
17079;SDS011;8655;57.106;-2.088;2022-11-18T08:40:02;19.63;;;7.00;;
17079;SDS011;8655;57.106;-2.088;2022-11-18T08:42:28;20.92;;;7.15;;
17079;SDS011;8655;57.106;-2.088;2022-11-18T08:44:53;20.23;;;6.57;;
17079;SDS011;8655;57.106;-2.088;2022-11-18T08:47:19;19.40;;;6.60;;
17079;SDS011;8655;57.106;-2.088;2022-11-18T08:49:45;17.52;;;7.03;;
17079;SDS011;8655;57.106;-2.088;2022-11-18T08:52:11;18.50;;;6.43;;
17079;SDS011;8655;57.106;-2.088;2022-11-18T08:54:37;18.73;;;7.10;;
17079;SDS011;8655;57.106;-2.088;2022-11-18T08:57:02;20.40;;;7.13;;
17079;SDS011;8655;57.106;-2.088;2022-11-18T08:59:28;15.17;;;6.70;;
17079;SDS011;8655;57.106;-2.088;2022-11-18T09:01:54;20.57;;;6.83;;
17079;SDS011;8655;57.106;-2.088;2022-11-18T09:04:19;18.88;;;6.75;;
17079;SDS011;8655;57.106;-2.088;2022-11-18T09:06:45;19.17;;;7.15;;
17079;SDS011;8655;57.106;-2.088;2022-11-18T09:09:11;19.95;;;8.00;;
17079;SDS011;8655;57.106;-2.088;2022-11-18T09:11:37;18.48;;;7.53;;
17079;SDS011;8655;57.106;-2.088;2022-11-18T09:14:03;16.10;;;6.88;;
17079;SDS011;8655;57.106;-2.088;2022-11-18T09:16:32;21.50;;;7.20;;
17079;SDS011;8655;57.106;-2.088;2022-11-18T09:18:59;22.48;;;7.05;;
17079;SDS011;8655;57.106;-2.088;2022-11-18T09:21:25;20.52;;;7.00;;
17079;SDS011;8655;57.106;-2.088;2022-11-18T09:23:51;22.17;;;7.78;;
17079;SDS011;8655;57.106;-2.088;2022-11-18T09:26:18;21.45;;;7.43;;
17079;SDS011;8655;57.106;-2.088;2022-11-18T09:28:46;17.47;;;7.13;;
17079;SDS011;8655;57.106;-2.088;2022-11-18T09:31:13;21.87;;;7.30;;
17079;SDS011;8655;57.106;-2.088;2022-11-18T09:33:41;20.60;;;7.33;;
17079;SDS011;8655;57.106;-2.088;2022-11-18T09:36:14;21.90;;;7.45;;
17079;SDS011;8655;57.106;-2.088;2022-11-18T09:38:44;20.90;;;7.47;;
17079;SDS011;8655;57.106;-2.088;2022-11-18T09:48:57;20.63;;;7.50;;
17079;SDS011;8655;57.106;-2.088;2022-11-18T09:51:43;18.87;;;7.23;;
17079;SDS011;8655;57.106;-2.088;2022-11-18T09:54:19;21.88;;;7.45;;
17079;SDS011;8655;57.106;-2.088;2022-11-18T09:56:47;21.85;;;7.68;;
17079;SDS011;8655;57.106;-2.088;2022-11-18T09:59:16;20.80;;;7.50;;
17079;SDS011;8655;57.106;-2.088;2022-11-18T10:01:44;24.88;;;7.68;;
17079;SDS011;8655;57.106;-2.088;2022-11-18T10:04:15;19.23;;;7.22;;
17079;SDS011;8655;57.106;-2.088;2022-11-18T10:06:43;14.63;;;6.57;;
17079;SDS011;8655;57.106;-2.088;2022-11-18T10:17:36;19.38;;;8.07;;
17079;SDS011;8655;57.106;-2.088;2022-11-18T10:22:57;18.37;;;6.53;;
17079;SDS011;8655;57.106;-2.088;2022-11-18T10:25:23;19.27;;;7.13;;
17079;SDS011;8655;57.106;-2.088;2022-11-18T10:27:49;19.90;;;7.13;;
17079;SDS011;8655;57.106;-2.088;2022-11-18T10:30:22;21.10;;;7.33;;
17079;SDS011;8655;57.106;-2.088;2022-11-18T10:35:26;19.93;;;7.67;;
17079;SDS011;8655;57.106;-2.088;2022-11-18T10:38:15;18.57;;;7.50;;
17079;SDS011;8655;57.106;-2.088;2022-11-18T10:40:44;20.97;;;7.77;;
17079;SDS011;8655;57.106;-2.088;2022-11-18T10:43:16;18.73;;;7.37;;
17079;SDS011;8655;57.106;-2.088;2022-11-18T10:49:13;19.13;;;7.80;;
17079;SDS011;8655;57.106;-2.088;2022-11-18T10:51:42;19.40;;;7.37;;
17079;SDS011;8655;57.106;-2.088;2022-11-18T10:59:20;19.30;;;7.30;;
17079;SDS011;8655;57.106;-2.088;2022-11-18T11:01:58;20.38;;;7.82;;
17079;SDS011;8655;57.106;-2.088;2022-11-18T11:04:27;21.10;;;7.30;;
17079;SDS011;8655;57.106;-2.088;2022-11-18T11:06:55;17.58;;;7.18;;
17079;SDS011;8655;57.106;-2.088;2022-11-18T11:09:25;23.33;;;8.63;;
17079;SDS011;8655;57.106;-2.088;2022-11-18T11:11:55;21.98;;;8.15;;
17079;SDS011;8655;57.106;-2.088;2022-11-18T11:17:10;16.57;;;6.90;;
17079;SDS011;8655;57.106;-2.088;2022-11-18T11:22:38;20.80;;;7.60;;
17079;SDS011;8655;57.106;-2.088;2022-11-18T11:25:11;22.93;;;7.93;;
17079;SDS011;8655;57.106;-2.088;2022-11-18T11:27:42;21.43;;;7.33;;
17079;SDS011;8655;57.106;-2.088;2022-11-18T11:30:25;20.07;;;7.37;;
17079;SDS011;8655;57.106;-2.088;2022-11-18T11:35:54;20.73;;;6.60;;
17079;SDS011;8655;57.106;-2.088;2022-11-18T11:38:58;20.13;;;7.63;;
17079;SDS011;8655;57.106;-2.088;2022-11-18T11:49:31;23.07;;;7.93;;
17079;SDS011;8655;57.106;-2.088;2022-11-18T11:58:18;20.63;;;7.60;;
17079;SDS011;8655;57.106;-2.088;2022-11-18T12:01:00;19.13;;;7.63;;
17079;SDS011;8655;57.106;-2.088;2022-11-18T12:03:40;19.93;;;7.63;;
17079;SDS011;8655;57.106;-2.088;2022-11-18T12:06:30;20.83;;;7.67;;
17079;SDS011;8655;57.106;-2.088;2022-11-18T12:09:04;18.73;;;7.00;;
17079;SDS011;8655;57.106;-2.088;2022-11-18T12:11:40;18.60;;;7.37;;
17079;SDS011;8655;57.106;-2.088;2022-11-18T12:14:36;23.80;;;8.13;;
17079;SDS011;8655;57.106;-2.088;2022-11-18T12:17:19;20.00;;;7.43;;
17079;SDS011;8655;57.106;-2.088;2022-11-18T12:19:49;21.70;;;7.70;;
17079;SDS011;8655;57.106;-2.088;2022-11-18T12:22:14;18.77;;;7.27;;
17079;SDS011;8655;57.106;-2.088;2022-11-18T12:24:41;23.27;;;8.03;;
17079;SDS011;8655;57.106;-2.088;2022-11-18T12:27:11;19.17;;;7.17;;
17079;SDS011;8655;57.106;-2.088;2022-11-18T12:34:57;22.17;;;7.60;;
17079;SDS011;8655;57.106;-2.088;2022-11-18T12:42:33;20.30;;;7.40;;
17079;SDS011;8655;57.106;-2.088;2022-11-18T12:50:52;20.85;;;7.43;;
17079;SDS011;8655;57.106;-2.088;2022-11-18T12:58:44;18.30;;;7.07;;
17079;SDS011;8655;57.106;-2.088;2022-11-18T13:01:10;22.03;;;7.67;;
17079;SDS011;8655;57.106;-2.088;2022-11-18T13:03:38;22.67;;;8.00;;
17079;SDS011;8655;57.106;-2.088;2022-11-18T13:06:05;19.40;;;7.45;;
17079;SDS011;8655;57.106;-2.088;2022-11-18T13:08:56;21.27;;;7.33;;
17079;SDS011;8655;57.106;-2.088;2022-11-18T13:11:25;18.33;;;7.47;;
17079;SDS011;8655;57.106;-2.088;2022-11-18T13:22:49;22.60;;;7.43;;
17079;SDS011;8655;57.106;-2.088;2022-11-18T13:25:34;17.77;;;7.10;;
17079;SDS011;8655;57.106;-2.088;2022-11-18T13:30:27;21.08;;;7.32;;
17079;SDS011;8655;57.106;-2.088;2022-11-18T13:32:54;18.47;;;7.03;;
17079;SDS011;8655;57.106;-2.088;2022-11-18T13:35:23;20.07;;;7.70;;
17079;SDS011;8655;57.106;-2.088;2022-11-18T13:37:55;15.33;;;6.87;;
17079;SDS011;8655;57.106;-2.088;2022-11-18T13:40:29;17.67;;;7.20;;
17079;SDS011;8655;57.106;-2.088;2022-11-18T13:43:02;16.25;;;7.15;;
17079;SDS011;8655;57.106;-2.088;2022-11-18T13:45:28;20.30;;;7.03;;
17079;SDS011;8655;57.106;-2.088;2022-11-18T13:50:36;17.23;;;7.17;;
17079;SDS011;8655;57.106;-2.088;2022-11-18T13:55:50;18.67;;;7.40;;
17079;SDS011;8655;57.106;-2.088;2022-11-18T13:58:28;17.60;;;6.90;;
17079;SDS011;8655;57.106;-2.088;2022-11-18T14:01:04;20.02;;;7.70;;
17079;SDS011;8655;57.106;-2.088;2022-11-18T14:06:29;18.90;;;7.10;;
17079;SDS011;8655;57.106;-2.088;2022-11-18T14:09:04;19.25;;;7.07;;
17079;SDS011;8655;57.106;-2.088;2022-11-18T14:11:38;18.13;;;7.47;;
17079;SDS011;8655;57.106;-2.088;2022-11-18T14:14:07;18.40;;;7.20;;
17079;SDS011;8655;57.106;-2.088;2022-11-18T14:16:36;19.93;;;7.30;;
17079;SDS011;8655;57.106;-2.088;2022-11-18T14:19:05;18.20;;;6.85;;
17079;SDS011;8655;57.106;-2.088;2022-11-18T14:21:35;18.33;;;6.87;;
17079;SDS011;8655;57.106;-2.088;2022-11-18T14:24:04;19.43;;;7.67;;
17079;SDS011;8655;57.106;-2.088;2022-11-18T14:26:32;19.03;;;7.00;;
17079;SDS011;8655;57.106;-2.088;2022-11-18T14:29:00;19.83;;;7.37;;
17079;SDS011;8655;57.106;-2.088;2022-11-18T14:31:38;18.37;;;7.17;;
17079;SDS011;8655;57.106;-2.088;2022-11-18T14:36:45;19.63;;;6.43;;
17079;SDS011;8655;57.106;-2.088;2022-11-18T14:39:16;20.53;;;6.87;;
17079;SDS011;8655;57.106;-2.088;2022-11-18T14:41:50;21.20;;;7.90;;
17079;SDS011;8655;57.106;-2.088;2022-11-18T14:44:17;20.57;;;7.13;;
17079;SDS011;8655;57.106;-2.088;2022-11-18T14:46:44;20.47;;;7.10;;
17079;SDS011;8655;57.106;-2.088;2022-11-18T14:49:18;21.27;;;7.53;;
17079;SDS011;8655;57.106;-2.088;2022-11-18T14:51:45;22.27;;;7.50;;
17079;SDS011;8655;57.106;-2.088;2022-11-18T14:54:13;17.63;;;7.20;;
17079;SDS011;8655;57.106;-2.088;2022-11-18T14:56:40;15.27;;;6.30;;
17079;SDS011;8655;57.106;-2.088;2022-11-18T14:59:16;18.33;;;7.13;;
17079;SDS011;8655;57.106;-2.088;2022-11-18T15:01:43;19.17;;;6.90;;
17079;SDS011;8655;57.106;-2.088;2022-11-18T15:04:10;17.10;;;7.33;;
17079;SDS011;8655;57.106;-2.088;2022-11-18T15:06:36;19.07;;;6.57;;
17079;SDS011;8655;57.106;-2.088;2022-11-18T15:09:02;19.20;;;6.43;;
17079;SDS011;8655;57.106;-2.088;2022-11-18T15:11:29;19.17;;;6.73;;
17079;SDS011;8655;57.106;-2.088;2022-11-18T15:13:55;15.60;;;6.30;;
17079;SDS011;8655;57.106;-2.088;2022-11-18T15:16:28;19.37;;;7.47;;
17079;SDS011;8655;57.106;-2.088;2022-11-18T15:18:56;19.20;;;6.73;;
17079;SDS011;8655;57.106;-2.088;2022-11-18T15:21:23;19.57;;;7.17;;
17079;SDS011;8655;57.106;-2.088;2022-11-18T15:23:49;18.93;;;6.67;;
17079;SDS011;8655;57.106;-2.088;2022-11-18T15:26:16;16.17;;;6.63;;
17079;SDS011;8655;57.106;-2.088;2022-11-18T15:28:46;18.13;;;6.70;;
17079;SDS011;8655;57.106;-2.088;2022-11-18T15:31:13;18.57;;;7.00;;
17079;SDS011;8655;57.106;-2.088;2022-11-18T15:33:39;18.63;;;6.90;;
17079;SDS011;8655;57.106;-2.088;2022-11-18T15:36:08;19.67;;;6.73;;
17079;SDS011;8655;57.106;-2.088;2022-11-18T15:38:38;17.57;;;5.97;;
17079;SDS011;8655;57.106;-2.088;2022-11-18T15:41:04;15.73;;;6.80;;
17079;SDS011;8655;57.106;-2.088;2022-11-18T15:43:30;15.57;;;6.07;;
17079;SDS011;8655;57.106;-2.088;2022-11-18T15:45:56;18.40;;;6.33;;
17079;SDS011;8655;57.106;-2.088;2022-11-18T15:48:22;17.17;;;6.63;;
17079;SDS011;8655;57.106;-2.088;2022-11-18T15:50:48;16.13;;;6.33;;
17079;SDS011;8655;57.106;-2.088;2022-11-18T15:53:13;16.80;;;7.03;;
17079;SDS011;8655;57.106;-2.088;2022-11-18T15:55:39;19.40;;;6.93;;
17079;SDS011;8655;57.106;-2.088;2022-11-18T15:58:05;17.23;;;6.57;;
17079;SDS011;8655;57.106;-2.088;2022-11-18T16:00:30;19.27;;;6.60;;
17079;SDS011;8655;57.106;-2.088;2022-11-18T16:02:56;18.33;;;6.73;;
17079;SDS011;8655;57.106;-2.088;2022-11-18T16:05:22;17.00;;;6.57;;
17079;SDS011;8655;57.106;-2.088;2022-11-18T16:07:48;18.17;;;6.40;;
17079;SDS011;8655;57.106;-2.088;2022-11-18T16:10:14;16.00;;;6.53;;
17079;SDS011;8655;57.106;-2.088;2022-11-18T16:12:58;14.50;;;6.50;;
17079;SDS011;8655;57.106;-2.088;2022-11-18T16:15:24;18.07;;;6.90;;
17079;SDS011;8655;57.106;-2.088;2022-11-18T16:18:08;15.30;;;6.27;;
17079;SDS011;8655;57.106;-2.088;2022-11-18T16:20:34;17.15;;;6.35;;
17079;SDS011;8655;57.106;-2.088;2022-11-18T16:23:01;16.67;;;6.37;;
17079;SDS011;8655;57.106;-2.088;2022-11-18T16:25:27;15.87;;;5.97;;
17079;SDS011;8655;57.106;-2.088;2022-11-18T16:27:53;17.73;;;6.60;;
17079;SDS011;8655;57.106;-2.088;2022-11-18T16:30:19;16.73;;;6.80;;
17079;SDS011;8655;57.106;-2.088;2022-11-18T16:33:03;16.90;;;6.50;;
17079;SDS011;8655;57.106;-2.088;2022-11-18T16:35:29;15.80;;;6.70;;
17079;SDS011;8655;57.106;-2.088;2022-11-18T16:37:55;18.43;;;7.17;;
17079;SDS011;8655;57.106;-2.088;2022-11-18T16:40:21;14.83;;;5.67;;
17079;SDS011;8655;57.106;-2.088;2022-11-18T16:42:50;15.80;;;6.33;;
17079;SDS011;8655;57.106;-2.088;2022-11-18T16:45:16;17.57;;;6.20;;
17079;SDS011;8655;57.106;-2.088;2022-11-18T16:47:43;18.43;;;6.40;;
17079;SDS011;8655;57.106;-2.088;2022-11-18T16:50:09;15.60;;;6.20;;
17079;SDS011;8655;57.106;-2.088;2022-11-18T16:52:35;18.30;;;6.27;;
17079;SDS011;8655;57.106;-2.088;2022-11-18T16:55:01;15.27;;;6.10;;
17079;SDS011;8655;57.106;-2.088;2022-11-18T16:57:27;18.00;;;6.53;;
17079;SDS011;8655;57.106;-2.088;2022-11-18T16:59:53;17.70;;;6.17;;
17079;SDS011;8655;57.106;-2.088;2022-11-18T17:02:18;18.90;;;6.30;;
17079;SDS011;8655;57.106;-2.088;2022-11-18T17:04:44;13.97;;;5.77;;
17079;SDS011;8655;57.106;-2.088;2022-11-18T17:07:10;15.87;;;6.33;;